Time;durP1;ratioP1;P1;durP2;ratioP2;P2;SDS_P1;SDS_P2;PMS_P1;PMS_P2;Temp;Humidity;BMP_temperature;BMP_pressure;BME280_temperature;BME280_humidity;BME280_pressure;Samples;Min_cycle;Max_cycle;Signal;HPM_P1;HPM_P2
2023/04/28 00:02:06;;;;;;;7.07;3.63;;;5.50;99.90;;;;;;5074046;28;20045;-39
2023/04/28 00:04:32;;;;;;;7.27;3.17;;;5.40;99.90;;;;;;5074330;28;20225;-38
2023/04/28 00:06:58;;;;;;;7.23;3.53;;;5.40;99.90;;;;;;5074229;28;20067;-38
2023/04/28 00:09:24;;;;;;;6.67;2.93;;;5.40;99.90;;;;;;5074013;28;20166;-39
2023/04/28 00:11:49;;;;;;;6.77;3.10;;;5.40;99.90;;;;;;5074223;28;20040;-39
2023/04/28 00:14:15;;;;;;;7.13;2.87;;;5.40;99.90;;;;;;5072824;28;20047;-38
2023/04/28 00:16:41;;;;;;;6.47;2.87;;;5.40;99.90;;;;;;5073862;28;20137;-39
2023/04/28 00:19:06;;;;;;;7.40;3.60;;;5.40;99.90;;;;;;5072906;28;20484;-39
2023/04/28 00:21:32;;;;;;;8.30;3.57;;;5.30;99.90;;;;;;5073954;28;20091;-39
2023/04/28 00:23:58;;;;;;;7.20;3.33;;;5.30;99.90;;;;;;5056434;28;20048;-39
2023/04/28 00:26:24;;;;;;;7.17;4.10;;;5.30;99.90;;;;;;5072967;28;20047;-39
2023/04/28 00:28:49;;;;;;;6.57;3.00;;;5.30;99.90;;;;;;5072708;28;20051;-38
2023/04/28 00:31:15;;;;;;;8.27;3.87;;;5.30;99.90;;;;;;5072479;28;20041;-39
2023/04/28 00:33:42;;;;;;;6.57;3.07;;;5.20;99.90;;;;;;5072935;28;20502;-39
2023/04/28 00:36:08;;;;;;;7.25;3.22;;;5.20;99.90;;;;;;5073788;28;20044;-39
2023/04/28 00:38:34;;;;;;;7.05;3.03;;;5.10;99.90;;;;;;5073654;28;20131;-39
2023/04/28 00:41:00;;;;;;;9.07;3.73;;;5.10;99.90;;;;;;5072508;28;20144;-39
2023/04/28 00:43:25;;;;;;;7.00;3.07;;;5.10;99.90;;;;;;5072712;28;20131;-38
2023/04/28 00:45:51;;;;;;;7.93;3.13;;;5.10;99.90;;;;;;5073686;28;20123;-39
2023/04/28 00:48:18;;;;;;;7.07;3.90;;;5.10;99.90;;;;;;5072404;28;20063;-39
2023/04/28 00:50:44;;;;;;;8.32;3.92;;;5.10;99.90;;;;;;5074247;28;20095;-38
2023/04/28 00:53:11;;;;;;;7.10;3.53;;;5.10;99.90;;;;;;5073664;28;20101;-39
2023/04/28 00:55:37;;;;;;;7.47;3.40;;;5.10;99.90;;;;;;5073119;28;20446;-39
2023/04/28 00:58:04;;;;;;;7.07;3.58;;;5.10;99.90;;;;;;5073231;28;20060;-39
2023/04/28 01:00:30;;;;;;;;;;;5.00;99.90;;;;;;5073790;28;20476;-39
2023/04/28 01:02:57;;;;;;;7.28;3.78;;;5.00;99.90;;;;;;5072731;28;19928;-38
2023/04/28 01:05:27;;;;;;;6.15;2.63;;;5.00;99.90;;;;;;5073462;28;20162;-39
2023/04/28 01:07:53;;;;;;;6.65;3.17;;;5.00;99.90;;;;;;5073431;28;20041;-38
2023/04/28 01:10:19;;;;;;;8.50;3.67;;;5.00;99.90;;;;;;5073378;28;20051;-39
2023/04/28 01:12:45;;;;;;;7.22;3.30;;;5.00;99.90;;;;;;5073374;28;20041;-39
2023/04/28 01:15:15;;;;;;;8.90;3.47;;;5.00;99.90;;;;;;5073195;28;20140;-39
2023/04/28 01:17:41;;;;;;;8.45;3.42;;;5.00;99.90;;;;;;5073379;28;20044;-39
2023/04/28 01:20:07;;;;;;;8.20;3.53;;;5.00;99.90;;;;;;5073630;28;20090;-39
2023/04/28 01:22:33;;;;;;;6.53;3.20;;;5.00;99.90;;;;;;5073275;28;20136;-39
2023/04/28 01:24:59;;;;;;;7.03;3.13;;;5.00;99.90;;;;;;5073390;28;20127;-39
2023/04/28 01:27:25;;;;;;;7.17;3.33;;;5.10;99.90;;;;;;5072200;28;20139;-39
2023/04/28 01:29:51;;;;;;;6.75;3.75;;;5.10;99.90;;;;;;5073334;28;20040;-39
2023/04/28 01:32:16;;;;;;;6.50;3.03;;;5.10;99.90;;;;;;5073448;28;20048;-39
2023/04/28 01:34:42;;;;;;;8.50;3.50;;;5.10;99.90;;;;;;5073254;28;20092;-39
2023/04/28 01:37:08;;;;;;;7.23;3.70;;;5.10;99.90;;;;;;5055470;28;20067;-38
2023/04/28 01:39:34;;;;;;;6.20;3.00;;;5.10;99.90;;;;;;5073218;28;20238;-39
2023/04/28 01:42:01;;;;;;;8.60;4.30;;;5.20;99.90;;;;;;5072978;28;20045;-39
2023/04/28 01:44:27;;;;;;;9.88;3.95;;;5.20;99.90;;;;;;5072919;28;20049;-39
2023/04/28 01:46:52;;;;;;;8.03;3.70;;;5.20;99.90;;;;;;5072913;28;20501;-38
2023/04/28 01:49:18;;;;;;;9.53;3.57;;;5.20;99.90;;;;;;5072817;28;20299;-39
2023/04/28 01:51:44;;;;;;;8.65;3.88;;;5.20;99.90;;;;;;5072795;28;20087;-39
2023/04/28 01:54:10;;;;;;;10.43;3.97;;;5.30;99.90;;;;;;5073002;28;20083;-39
2023/04/28 01:56:36;;;;;;;6.13;2.80;;;5.30;99.90;;;;;;5072855;28;20081;-39
2023/04/28 01:59:01;;;;;;;8.50;3.60;;;5.40;99.90;;;;;;5073091;28;20052;-39
2023/04/28 02:01:27;;;;;;;8.20;3.43;;;5.40;99.90;;;;;;5072991;28;20404;-39
2023/04/28 02:03:54;;;;;;;8.33;4.03;;;5.40;99.90;;;;;;5072927;28;20052;-38
2023/04/28 02:06:19;;;;;;;;;;;5.50;99.90;;;;;;5073515;28;20044;-38
2023/04/28 02:08:45;;;;;;;9.93;3.88;;;5.50;99.90;;;;;;5074108;28;19920;-39
2023/04/28 02:11:11;;;;;;;7.97;3.53;;;5.50;99.90;;;;;;5076313;28;20121;-39
2023/04/28 02:13:37;;;;;;;6.97;3.33;;;5.50;99.90;;;;;;5075859;28;20052;-39
2023/04/28 02:16:03;;;;;;;7.30;3.57;;;5.50;99.90;;;;;;5076390;28;20058;-39
2023/04/28 02:18:28;;;;;;;7.40;3.43;;;5.50;99.90;;;;;;5076113;28;20063;-39
2023/04/28 02:20:54;;;;;;;8.70;3.67;;;5.50;99.90;;;;;;5076463;28;20106;-39
2023/04/28 02:23:20;;;;;;;8.37;3.77;;;5.50;99.90;;;;;;5075235;28;20391;-39
2023/04/28 02:25:45;;;;;;;8.23;3.70;;;5.50;99.90;;;;;;5075946;28;20045;-40
2023/04/28 02:28:11;;;;;;;9.80;4.07;;;5.60;99.90;;;;;;5076080;28;20048;-39
2023/04/28 02:30:37;;;;;;;10.63;4.47;;;5.60;99.90;;;;;;5075805;28;20446;-39
2023/04/28 02:33:03;;;;;;;10.83;5.13;;;5.60;99.90;;;;;;5076084;28;20283;-39
2023/04/28 02:35:28;;;;;;;11.93;4.63;;;5.70;99.90;;;;;;5075988;28;20067;-39
2023/04/28 02:37:54;;;;;;;9.77;4.67;;;5.80;99.90;;;;;;5075890;28;20178;-39
2023/04/28 02:40:20;;;;;;;10.23;5.47;;;5.80;99.90;;;;;;5075652;28;20476;-39
2023/04/28 02:42:45;;;;;;;12.17;5.43;;;5.80;99.90;;;;;;5075657;28;20476;-38
2023/04/28 02:45:11;;;;;;;12.57;5.43;;;5.80;99.90;;;;;;5074870;28;20045;-39
2023/04/28 02:47:37;;;;;;;11.63;5.70;;;5.90;99.90;;;;;;5074837;28;20049;-39
2023/04/28 02:50:03;;;;;;;11.23;5.40;;;5.90;99.90;;;;;;5075646;28;20060;-39
2023/04/28 02:52:28;;;;;;;15.17;5.83;;;5.90;99.90;;;;;;5075608;28;20408;-39
2023/04/28 02:54:56;;;;;;;13.50;5.33;;;5.90;99.90;;;;;;5075596;28;20558;-39
2023/04/28 02:57:22;;;;;;;10.68;4.53;;;5.90;99.90;;;;;;5075343;28;20049;-39
2023/04/28 02:59:48;;;;;;;11.98;5.30;;;6.00;99.90;;;;;;5075713;28;20056;-39
2023/04/28 03:02:14;;;;;;;9.10;4.67;;;5.90;99.90;;;;;;5075345;28;20048;-39
2023/04/28 03:04:40;;;;;;;10.50;5.13;;;5.90;99.90;;;;;;5075632;28;20127;-39
2023/04/28 03:07:06;;;;;;;9.77;4.93;;;5.90;99.90;;;;;;5075394;28;20127;-39
2023/04/28 03:09:32;;;;;;;10.73;5.50;;;5.80;99.90;;;;;;5075278;28;20048;-39
2023/04/28 03:11:57;;;;;;;10.77;5.10;;;5.80;99.90;;;;;;5075168;28;20593;-39
2023/04/28 03:14:23;;;;;;;10.63;5.63;;;5.80;99.90;;;;;;5075245;28;20113;-39
2023/04/28 03:16:49;;;;;;;10.13;5.00;;;5.80;99.90;;;;;;5075176;28;20045;-38
2023/04/28 03:19:15;;;;;;;11.23;4.93;;;5.80;99.90;;;;;;5074422;28;20048;-38
2023/04/28 03:21:40;;;;;;;12.67;5.97;;;5.80;99.90;;;;;;5075007;28;20128;-38
2023/04/28 03:24:06;;;;;;;12.30;5.93;;;5.90;99.90;;;;;;5073903;28;20060;-39
2023/04/28 03:26:32;;;;;;;17.30;6.73;;;5.90;99.90;;;;;;5074779;28;20044;-39
2023/04/28 03:28:58;;;;;;;14.37;6.13;;;5.90;99.90;;;;;;5074024;28;20055;-39
2023/04/28 03:31:23;;;;;;;14.33;6.30;;;5.90;99.90;;;;;;5057372;28;20052;-38
2023/04/28 03:33:49;;;;;;;13.40;5.87;;;5.90;99.90;;;;;;5057516;28;20055;-39
2023/04/28 03:36:15;;;;;;;18.43;6.90;;;5.90;99.90;;;;;;5074776;28;20091;-39
2023/04/28 03:38:41;;;;;;;16.98;6.28;;;5.90;99.90;;;;;;5073715;28;20051;-38
2023/04/28 03:41:06;;;;;;;13.43;6.07;;;5.90;99.90;;;;;;5074504;28;20472;-39
2023/04/28 03:43:34;;;;;;;12.43;6.07;;;5.90;99.90;;;;;;5074695;28;20556;-39
2023/04/28 03:46:00;;;;;;;12.35;6.07;;;5.90;99.90;;;;;;5074524;28;20056;-39
2023/04/28 03:48:26;;;;;;;16.20;7.50;;;5.90;99.90;;;;;;5073339;28;20052;-39
2023/04/28 03:50:51;;;;;;;13.03;6.20;;;5.90;99.90;;;;;;5073880;28;20684;-39
2023/04/28 03:53:17;;;;;;;14.83;7.13;;;5.90;99.90;;;;;;5074473;28;20055;-39
2023/04/28 03:55:43;;;;;;;14.20;6.47;;;5.90;99.90;;;;;;5074284;28;20131;-38
2023/04/28 03:58:09;;;;;;;13.13;5.82;;;5.90;99.90;;;;;;5074706;28;20056;-39
2023/04/28 04:00:35;;;;;;;12.00;5.60;;;5.90;99.90;;;;;;5074269;28;20471;-39
2023/04/28 04:03:00;;;;;;;16.67;6.33;;;6.00;99.90;;;;;;5074504;28;20056;-39
2023/04/28 04:05:26;;;;;;;14.60;6.63;;;5.90;99.90;;;;;;5074150;28;20044;-38
2023/04/28 04:07:52;;;;;;;13.57;6.00;;;5.90;99.90;;;;;;5074233;28;20145;-39
2023/04/28 04:10:17;;;;;;;13.87;6.97;;;6.00;99.90;;;;;;5074086;28;20480;-39
2023/04/28 04:12:43;;;;;;;11.30;5.77;;;5.90;99.90;;;;;;5072929;28;20059;-39
2023/04/28 04:15:09;;;;;;;13.50;6.30;;;5.90;99.90;;;;;;5074115;28;20475;-39
2023/04/28 04:17:35;;;;;;;11.57;5.70;;;5.90;99.90;;;;;;5074138;28;20044;-39
2023/04/28 04:20:01;;;;;;;10.07;5.23;;;6.00;99.90;;;;;;5073901;28;20412;-39
2023/04/28 04:22:26;;;;;;;13.87;5.60;;;5.90;99.90;;;;;;5073788;28;20385;-40
2023/04/28 04:24:52;;;;;;;11.50;5.23;;;5.90;99.90;;;;;;5073879;28;20048;-39
2023/04/28 04:27:18;;;;;;;14.03;6.10;;;5.90;99.90;;;;;;5074154;28;20048;-39
2023/04/28 04:29:43;;;;;;;12.47;6.03;;;5.90;99.90;;;;;;5073953;28;20487;-39
2023/04/28 04:32:09;;;;;;;14.60;5.07;;;5.90;99.90;;;;;;5072525;28;20128;-39
2023/04/28 04:34:35;;;;;;;13.30;5.50;;;5.90;99.90;;;;;;5072905;28;20070;-39
2023/04/28 04:37:01;;;;;;;12.77;5.83;;;5.90;99.90;;;;;;5089718;28;20468;-39
2023/04/28 04:39:27;;;;;;;15.60;5.83;;;5.90;99.90;;;;;;5073655;28;20066;-39
2023/04/28 04:41:52;;;;;;;11.03;5.03;;;5.90;99.90;;;;;;5073815;28;20075;-39
2023/04/28 04:44:18;;;;;;;11.67;5.43;;;5.90;99.90;;;;;;5073748;28;20046;-39
2023/04/28 04:46:45;;;;;;;11.30;5.60;;;5.90;99.90;;;;;;5072752;28;20044;-39
2023/04/28 04:49:10;;;;;;;9.95;4.88;;;5.90;99.90;;;;;;5072483;28;20087;-39
2023/04/28 04:51:36;;;;;;;12.73;5.20;;;5.90;99.90;;;;;;5073618;28;20080;-39
2023/04/28 04:54:02;;;;;;;11.60;5.03;;;5.90;99.90;;;;;;5073535;28;20056;-39
2023/04/28 04:56:28;;;;;;;11.47;4.73;;;5.90;99.90;;;;;;5072538;28;20102;-39
2023/04/28 04:58:53;;;;;;;11.17;4.83;;;5.90;99.90;;;;;;5072815;28;20476;-39
2023/04/28 05:01:19;;;;;;;8.53;4.27;;;5.90;99.90;;;;;;5073450;28;20040;-39
2023/04/28 05:03:45;;;;;;;10.90;4.70;;;5.90;99.90;;;;;;5072423;28;20044;-39
2023/04/28 05:06:10;;;;;;;12.00;5.40;;;5.90;99.90;;;;;;5073459;28;20037;-39
2023/04/28 05:08:36;;;;;;;11.10;4.73;;;5.90;99.90;;;;;;5073315;28;20040;-39
2023/04/28 05:11:02;;;;;;;12.40;5.13;;;5.90;99.90;;;;;;5072563;28;20391;-39
2023/04/28 05:13:27;;;;;;;11.00;5.03;;;5.90;99.90;;;;;;5073494;28;20041;-39
2023/04/28 05:15:53;;;;;;;10.50;5.13;;;6.00;99.90;;;;;;5073276;28;20106;-39
2023/04/28 05:18:19;;;;;;;9.57;4.20;;;6.00;99.90;;;;;;5073393;28;20052;-38
2023/04/28 05:20:45;;;;;;;10.13;4.40;;;6.00;99.90;;;;;;5073312;28;20041;-39
2023/04/28 05:23:10;;;;;;;9.57;4.27;;;6.00;99.90;;;;;;5073120;28;20055;-39
2023/04/28 05:25:36;;;;;;;8.50;4.17;;;6.10;99.90;;;;;;5073328;28;20127;-39
2023/04/28 05:28:06;;;;;;;9.40;4.27;;;6.10;99.90;;;;;;5073218;28;20048;-39
2023/04/28 05:30:32;;;;;;;11.57;4.55;;;6.10;99.90;;;;;;5072413;28;20110;-39
2023/04/28 05:32:58;;;;;;;11.05;4.55;;;6.20;99.90;;;;;;5073224;28;20095;-39
2023/04/28 05:35:25;;;;;;;8.60;4.10;;;6.20;99.90;;;;;;5073076;28;20091;-39
2023/04/28 05:37:50;;;;;;;10.10;4.57;;;6.20;99.90;;;;;;5071875;28;20144;-39
2023/04/28 05:40:16;;;;;;;10.20;4.43;;;6.20;99.90;;;;;;5072899;28;20535;-39
2023/04/28 05:42:42;;;;;;;9.80;4.87;;;6.20;99.90;;;;;;5074733;28;20091;-39
2023/04/28 05:45:08;;;;;;;11.37;4.53;;;6.20;99.90;;;;;;5075826;28;20056;-39
2023/04/28 05:47:34;;;;;;;10.25;4.50;;;6.30;99.90;;;;;;5076938;28;20099;-39
2023/04/28 05:50:00;;;;;;;10.80;4.87;;;6.30;99.90;;;;;;5075345;28;20496;-39
2023/04/28 05:52:25;;;;;;;9.83;4.43;;;6.30;99.90;;;;;;5076638;28;20491;-39
2023/04/28 05:54:51;;;;;;;8.97;4.27;;;6.30;99.90;;;;;;5076756;28;20048;-39
2023/04/28 05:57:16;;;;;;;12.97;5.37;;;6.30;99.90;;;;;;5076733;28;20045;-39
2023/04/28 05:59:42;;;;;;;9.17;4.80;;;6.30;99.90;;;;;;5075532;28;20037;-39
2023/04/28 06:02:08;;;;;;;9.10;4.07;;;6.40;99.90;;;;;;5075207;28;20151;-39
2023/04/28 06:04:33;;;;;;;11.40;4.93;;;6.30;99.90;;;;;;5076479;28;20181;-39
2023/04/28 06:06:59;;;;;;;9.80;5.07;;;6.40;99.90;;;;;;5075519;28;20476;-39
2023/04/28 06:09:25;;;;;;;12.57;4.60;;;6.40;99.90;;;;;;5076540;28;20052;-39
2023/04/28 06:11:50;;;;;;;10.57;4.70;;;6.40;99.90;;;;;;5075503;28;20056;-39
2023/04/28 06:14:16;;;;;;;10.10;4.80;;;6.50;99.90;;;;;;5076439;28;20059;-39
2023/04/28 06:16:42;;;;;;;11.77;4.47;;;6.50;99.90;;;;;;5076663;28;20476;-39
2023/04/28 06:19:08;;;;;;;10.97;5.87;;;6.50;99.90;;;;;;5075465;28;20480;-39
2023/04/28 06:21:34;;;;;;;9.40;4.97;;;6.50;99.90;;;;;;5075934;28;20044;-39
2023/04/28 06:24:00;;;;;;;8.77;4.70;;;6.50;99.90;;;;;;5076267;28;20057;-39
2023/04/28 06:26:26;;;;;;;9.98;5.03;;;6.50;99.90;;;;;;5075167;28;20053;-39
2023/04/28 06:28:52;;;;;;;9.40;4.53;;;6.50;99.90;;;;;;5076025;28;20529;-39
2023/04/28 06:31:17;;;;;;;9.47;4.30;;;6.50;99.90;;;;;;5058372;28;20504;-39
2023/04/28 06:33:43;;;;;;;11.30;5.00;;;6.50;99.90;;;;;;5075134;28;20052;-39
2023/04/28 06:36:12;;;;;;;12.40;4.93;;;6.50;99.90;;;;;;5075774;28;20396;-39
2023/04/28 06:38:39;;;;;;;8.75;4.55;;;6.50;99.90;;;;;;5075011;28;20056;-39
2023/04/28 06:41:05;;;;;;;10.18;4.25;;;6.60;99.90;;;;;;5075890;28;20056;-39
2023/04/28 06:43:32;;;;;;;9.13;4.67;;;6.60;99.90;;;;;;5074964;28;20055;-39
2023/04/28 06:45:58;;;;;;;10.52;4.97;;;6.60;99.90;;;;;;5075709;28;20502;-39
2023/04/28 06:48:24;;;;;;;10.77;5.30;;;6.60;99.90;;;;;;5075680;28;20135;-39
2023/04/28 06:50:50;;;;;;;;;;;6.70;99.90;;;;;;5076066;28;20052;-39
2023/04/28 06:53:16;;;;;;;11.63;4.78;;;6.80;99.90;;;;;;5075508;28;20331;-39
2023/04/28 06:55:42;;;;;;;10.10;4.70;;;6.80;99.90;;;;;;5075076;28;20045;-39
2023/04/28 06:58:07;;;;;;;9.83;4.80;;;6.90;99.90;;;;;;5075406;28;20495;-39
2023/04/28 07:00:34;;;;;;;9.07;4.50;;;6.90;99.90;;;;;;5075421;28;20045;-39
2023/04/28 07:03:00;;;;;;;10.68;4.88;;;6.90;99.90;;;;;;5057961;28;20507;-39
2023/04/28 07:05:26;;;;;;;10.82;4.72;;;6.90;99.90;;;;;;5075383;28;20123;-40
2023/04/28 07:07:52;;;;;;;10.90;5.13;;;6.90;99.90;;;;;;5074452;28;20048;-39
2023/04/28 07:10:18;;;;;;;8.77;4.80;;;6.90;99.90;;;;;;5075523;28;20048;-39
2023/04/28 07:12:44;;;;;;;10.00;4.60;;;7.00;99.90;;;;;;5075357;28;20082;-39
2023/04/28 07:15:10;;;;;;;9.63;4.68;;;7.00;99.90;;;;;;5074141;28;20084;-39
2023/04/28 07:17:37;;;;;;;11.05;5.20;;;7.00;99.90;;;;;;5075091;28;20443;-39
2023/04/28 07:20:04;;;;;;;11.73;5.32;;;7.00;99.90;;;;;;5074971;28;20059;-39
2023/04/28 07:22:30;;;;;;;10.18;4.63;;;7.00;99.90;;;;;;5074140;28;20063;-39
2023/04/28 07:24:56;;;;;;;11.82;4.95;;;7.00;99.90;;;;;;5075263;28;20049;-39
2023/04/28 07:27:22;;;;;;;12.45;5.68;;;7.10;99.90;;;;;;5073809;28;20051;-39
2023/04/28 07:29:48;;;;;;;10.05;4.80;;;7.10;99.90;;;;;;5075169;28;20174;-39
2023/04/28 07:32:13;;;;;;;10.83;5.23;;;7.20;99.90;;;;;;5074975;28;20131;-39
2023/04/28 07:34:39;;;;;;;13.73;5.53;;;7.30;99.90;;;;;;5074831;28;20414;-39
2023/04/28 07:37:05;;;;;;;9.77;4.70;;;7.30;99.90;;;;;;5073826;28;20045;-39
2023/04/28 07:39:33;;;;;;;8.35;4.80;;;7.40;99.90;;;;;;5074743;28;20048;-39
2023/04/28 07:42:00;;;;;;;9.02;4.47;;;7.50;99.90;;;;;;5074602;28;20384;-39
2023/04/28 07:44:25;;;;;;;13.65;5.93;;;7.50;99.90;;;;;;5074754;28;20088;-39
2023/04/28 07:46:52;;;;;;;10.70;4.87;;;7.50;99.90;;;;;;5073405;28;20048;-39
2023/04/28 07:49:18;;;;;;;9.95;4.68;;;7.50;99.90;;;;;;5074511;28;20095;-39
2023/04/28 07:51:43;;;;;;;8.40;4.63;;;7.50;99.90;;;;;;5074547;28;20190;-39
2023/04/28 07:54:09;;;;;;;10.63;4.50;;;7.50;99.90;;;;;;5074564;28;20502;-39
2023/04/28 07:56:35;;;;;;;9.47;5.13;;;7.50;99.90;;;;;;5073537;28;20055;-39
2023/04/28 07:59:01;;;;;;;8.87;4.17;;;7.50;99.90;;;;;;5056687;28;20135;-39
2023/04/28 08:01:26;;;;;;;9.03;4.00;;;7.50;99.90;;;;;;5074178;28;20047;-39
2023/04/28 08:03:52;;;;;;;9.83;5.07;;;7.60;99.90;;;;;;5074319;28;20058;-39
2023/04/28 08:06:18;;;;;;;10.67;5.00;;;7.60;99.90;;;;;;5074273;28;20044;-39
2023/04/28 08:08:44;;;;;;;9.53;4.60;;;7.60;99.90;;;;;;5074309;28;20139;-39
2023/04/28 08:11:10;;;;;;;9.23;4.47;;;7.70;99.90;;;;;;5074152;28;20051;-39
2023/04/28 08:13:35;;;;;;;11.10;4.70;;;7.70;99.90;;;;;;5074044;28;20045;-39
2023/04/28 08:16:01;;;;;;;10.90;4.83;;;7.70;99.90;;;;;;5074072;28;20040;-39
2023/04/28 08:18:28;;;;;;;11.40;5.00;;;7.70;99.90;;;;;;5073858;28;20056;-39
2023/04/28 08:20:54;;;;;;;10.38;5.90;;;7.70;99.90;;;;;;5073942;28;20090;-39
2023/04/28 08:23:20;;;;;;;10.32;5.13;;;7.70;99.90;;;;;;5073283;28;20446;-39
2023/04/28 08:25:46;;;;;;;9.60;4.88;;;7.70;99.90;;;;;;5072928;28;20163;-39
2023/04/28 08:28:12;;;;;;;9.98;4.70;;;7.70;99.90;;;;;;5073985;28;20048;-39
2023/04/28 08:30:38;;;;;;;10.05;5.00;;;7.80;99.90;;;;;;5073927;28;20047;-39
2023/04/28 08:33:04;;;;;;;11.00;5.20;;;7.80;99.90;;;;;;5073824;28;20041;-39
2023/04/28 08:35:30;;;;;;;9.37;4.83;;;7.80;99.90;;;;;;5073932;28;20056;-40
2023/04/28 08:37:56;;;;;;;10.50;5.20;;;7.80;99.90;;;;;;5073849;28;20370;-39
2023/04/28 08:40:23;;;;;;;8.85;4.82;;;7.80;99.90;;;;;;5073759;28;20045;-39
2023/04/28 08:42:48;;;;;;;;;;;7.80;99.90;;;;;;5074263;28;20052;-39
2023/04/28 08:45:14;;;;;;;10.70;4.30;;;7.80;99.90;;;;;;5073546;28;20011;-39
2023/04/28 08:47:44;;;;;;;9.52;4.90;;;7.90;99.90;;;;;;5073513;28;20091;-39
2023/04/28 08:50:11;;;;;;;10.77;5.18;;;7.90;99.90;;;;;;5073842;28;20064;-39
2023/04/28 08:52:38;;;;;;;9.10;4.75;;;7.90;99.90;;;;;;5073645;28;20048;-39
2023/04/28 08:55:07;;;;;;;11.48;5.32;;;8.00;99.90;;;;;;5089307;28;20056;-39
2023/04/28 08:57:52;;;;;;;8.18;4.22;;;8.00;99.90;;;;;;5073452;28;20574;-39
2023/04/28 09:00:18;;;;;;;9.35;4.40;;;8.00;99.90;;;;;;5073594;28;20048;-39
2023/04/28 09:02:44;;;;;;;9.07;4.60;;;8.00;99.90;;;;;;5072844;28;20509;-39
2023/04/28 09:05:11;;;;;;;10.30;5.47;;;8.00;99.90;;;;;;5073593;28;20044;-39
2023/04/28 09:07:37;;;;;;;8.98;4.25;;;8.00;99.90;;;;;;5073501;28;20052;-39
2023/04/28 09:10:23;;;;;;;10.10;4.90;;;8.00;99.90;;;;;;5073287;28;20554;-39
2023/04/28 09:12:54;;;;;;;9.18;4.50;;;7.90;99.90;;;;;;5073929;28;20060;-39
2023/04/28 09:15:28;;;;;;;9.02;5.05;;;8.00;99.90;;;;;;5073726;28;20094;-39
2023/04/28 09:17:54;;;;;;;9.00;4.55;;;8.00;99.90;;;;;;5075421;28;20051;-39
2023/04/28 09:20:27;;;;;;;10.60;4.90;;;8.00;99.90;;;;;;5077473;28;20044;-39
2023/04/28 09:22:54;;;;;;;11.50;5.45;;;8.00;99.90;;;;;;5077432;28;20053;-39
2023/04/28 09:25:21;;;;;;;;;;;8.00;99.90;;;;;;5077568;28;20048;-39
2023/04/28 09:27:48;;;;;;;10.02;5.18;;;8.10;99.90;;;;;;5077067;28;20375;-39
2023/04/28 09:30:13;;;;;;;11.68;5.45;;;8.10;99.90;;;;;;5077217;28;20059;-39
2023/04/28 09:32:39;;;;;;;12.10;5.37;;;8.10;99.90;;;;;;5077135;28;20044;-39
2023/04/28 09:35:06;;;;;;;11.53;5.63;;;8.20;99.90;;;;;;5076192;28;20088;-39
2023/04/28 09:37:33;;;;;;;9.85;4.97;;;8.20;99.90;;;;;;5075935;28;20499;-39
2023/04/28 09:40:17;;;;;;;11.27;5.20;;;8.30;99.90;;;;;;5076931;28;20127;-39
2023/04/28 09:42:45;;;;;;;9.20;4.95;;;8.40;99.90;;;;;;5077061;28;20049;-39
2023/04/28 09:45:13;;;;;;;12.32;5.35;;;8.40;99.90;;;;;;5075930;28;20480;-39
2023/04/28 09:47:41;;;;;;;10.90;4.97;;;8.50;99.90;;;;;;5076821;28;20480;-39
2023/04/28 09:50:11;;;;;;;9.85;5.30;;;8.60;99.90;;;;;;5076958;28;20452;-39
2023/04/28 09:52:37;;;;;;;8.20;4.90;;;8.60;99.90;;;;;;5077002;28;20135;-39
2023/04/28 09:55:05;;;;;;;12.83;6.67;;;8.80;99.90;;;;;;5076816;28;20470;-39
2023/04/28 09:57:32;;;;;;;11.43;5.80;;;9.00;99.90;;;;;;5076690;28;20037;-39
2023/04/28 09:59:59;;;;;;;10.60;5.68;;;9.20;99.90;;;;;;5075797;28;20045;-40
2023/04/28 10:02:25;;;;;;;12.85;5.60;;;9.40;99.90;;;;;;5076474;28;20043;-39
2023/04/28 10:04:51;;;;;;;9.48;5.05;;;9.60;99.90;;;;;;5076507;28;20448;-39
2023/04/28 10:07:20;;;;;;;12.37;5.13;;;9.70;99.90;;;;;;5076991;28;20080;-39
2023/04/28 10:09:50;;;;;;;11.50;4.90;;;9.90;99.90;;;;;;5076810;28;20106;-39
2023/04/28 10:12:19;;;;;;;10.00;4.88;;;9.90;99.90;;;;;;5076719;28;20087;-39
2023/04/28 10:14:46;;;;;;;10.38;5.25;;;10.10;99.90;;;;;;5076385;28;20075;-39
2023/04/28 10:17:13;;;;;;;;;;;10.20;99.90;;;;;;5076609;28;20558;-40
2023/04/28 10:19:43;;;;;;;10.00;5.50;;;10.30;99.90;;;;;;5076421;28;19921;-39
2023/04/28 10:22:57;;;;;;;9.05;5.25;;;10.30;99.90;;;;;;5076191;28;20444;-39
2023/04/28 10:25:26;;;;;;;10.43;5.68;;;10.30;99.90;;;;;;5070549;28;20064;-39
2023/04/28 10:27:53;;;;;;;13.60;5.70;;;10.30;99.90;;;;;;5075127;28;20090;-39
2023/04/28 10:30:23;;;;;;;10.40;5.22;;;10.40;99.90;;;;;;5074913;28;20047;-39
2023/04/28 10:33:10;;;;;;;9.38;4.75;;;10.40;99.90;;;;;;5076521;28;20048;-39
2023/04/28 10:35:44;;;;;;;9.43;5.07;;;10.50;99.90;;;;;;5076058;28;20053;-40
2023/04/28 10:38:17;;;;;;;11.88;5.22;;;10.60;99.90;;;;;;5075899;28;20119;-39
2023/04/28 10:40:48;;;;;;;8.45;5.13;;;10.70;99.90;;;;;;5076278;28;20048;-39
2023/04/28 10:43:32;;;;;;;9.27;4.78;;;10.80;99.90;;;;;;5075091;28;20563;-39
2023/04/28 10:45:59;;;;;;;9.85;5.13;;;10.70;99.90;;;;;;5075895;28;20047;-39
2023/04/28 10:48:25;;;;;;;9.45;5.55;;;10.80;99.90;;;;;;5075725;28;20052;-39
2023/04/28 10:51:12;;;;;;;10.73;5.47;;;10.80;99.90;;;;;;5075481;28;20408;-39
2023/04/28 10:53:43;;;;;;;10.05;5.40;;;10.80;99.90;;;;;;5075704;28;20399;-40
2023/04/28 10:56:17;;;;;;;11.57;5.38;;;10.80;99.90;;;;;;5074640;28;20044;-40
2023/04/28 10:59:03;;;;;;;9.55;5.40;;;10.80;99.90;;;;;;5074773;28;20155;-40
2023/04/28 11:01:30;;;;;;;9.27;5.13;;;10.80;99.90;;;;;;5073733;28;20059;-39
2023/04/28 11:04:15;;;;;;;8.65;4.68;;;10.80;99.90;;;;;;5057658;28;20411;-40
2023/04/28 11:06:43;;;;;;;10.32;5.53;;;10.80;99.90;;;;;;5075603;28;20082;-40
2023/04/28 11:09:12;;;;;;;8.80;5.13;;;10.80;99.90;;;;;;5075164;28;20051;-40
2023/04/28 11:11:57;;;;;;;10.30;4.88;;;10.80;99.90;;;;;;5075170;28;20095;-40
2023/04/28 11:14:34;;;;;;;9.88;5.20;;;10.80;99.90;;;;;;5075594;28;20051;-40
2023/04/28 11:17:02;;;;;;;11.27;6.05;;;10.80;99.90;;;;;;5075306;28;20476;-40
2023/04/28 11:19:29;;;;;;;10.20;6.20;;;10.80;99.90;;;;;;5074215;28;20476;-40
2023/04/28 11:21:56;;;;;;;;;;;10.70;99.90;;;;;;5075299;28;20395;-40
2023/04/28 11:24:26;;;;;;;10.82;5.82;;;10.70;99.90;;;;;;5074875;28;20015;-40
2023/04/28 11:26:52;;;;;;;10.13;5.65;;;10.60;99.90;;;;;;5075110;28;20044;-40
2023/04/28 11:29:17;;;;;;;10.75;6.32;;;10.60;99.90;;;;;;5074979;28;20059;-39
2023/04/28 11:31:52;;;;;;;11.10;6.63;;;10.50;99.90;;;;;;5073619;28;20052;-39
2023/04/28 11:34:20;;;;;;;13.32;6.43;;;10.40;99.90;;;;;;5074947;28;20083;-39
2023/04/28 11:36:46;;;;;;;12.10;6.15;;;10.40;99.90;;;;;;5073563;28;20083;-39
2023/04/28 11:39:13;;;;;;;14.95;6.78;;;10.30;99.90;;;;;;5074435;28;20053;-39
2023/04/28 11:41:40;;;;;;;13.05;7.18;;;10.30;99.90;;;;;;5074606;28;20039;-39
2023/04/28 11:44:28;;;;;;;11.60;6.53;;;10.40;99.90;;;;;;5074700;28;20101;-39
2023/04/28 11:46:58;;;;;;;12.73;7.10;;;10.40;99.90;;;;;;5073513;28;20044;-39
2023/04/28 11:49:27;;;;;;;10.50;5.90;;;10.40;99.90;;;;;;5074623;28;20091;-39
2023/04/28 11:51:54;;;;;;;12.43;6.65;;;10.40;99.90;;;;;;5073644;28;20064;-39
2023/04/28 11:54:22;;;;;;;10.65;6.25;;;10.40;99.90;;;;;;5074748;28;20041;-39
2023/04/28 11:56:48;;;;;;;11.45;6.90;;;10.40;99.90;;;;;;5074236;28;20518;-40
2023/04/28 11:59:14;;;;;;;13.23;6.97;;;10.50;99.90;;;;;;5073134;28;20049;-40
2023/04/28 12:01:53;;;;;;;11.73;6.97;;;10.50;99.90;;;;;;5074207;28;20044;-40
2023/04/28 12:04:36;;;;;;;12.10;6.72;;;10.60;99.90;;;;;;5074572;28;20040;-39
2023/04/28 12:07:12;;;;;;;11.30;6.65;;;10.60;99.90;;;;;;5074236;28;20045;-40
2023/04/28 12:10:08;;;;;;;13.25;6.95;;;10.70;99.90;;;;;;5073309;28;20047;-39
2023/04/28 12:12:34;;;;;;;12.77;6.65;;;10.80;99.90;;;;;;5074645;28;20048;-40
2023/04/28 12:15:04;;;;;;;11.20;5.80;;;10.80;99.90;;;;;;5073251;28;20052;-39
2023/04/28 12:17:34;;;;;;;13.52;8.15;;;10.80;99.90;;;;;;5072968;28;20049;-40
2023/04/28 12:20:02;;;;;;;12.10;6.95;;;10.90;99.90;;;;;;5073227;28;20040;-40
2023/04/28 12:22:29;;;;;;;12.07;7.35;;;10.80;99.90;;;;;;5073870;28;20491;-40
2023/04/28 12:25:01;;;;;;;;;;;10.90;99.90;;;;;;5074428;28;20132;-39
2023/04/28 12:27:28;;;;;;;13.25;6.75;;;10.90;99.90;;;;;;5073092;28;19920;-40
2023/04/28 12:29:55;;;;;;;11.13;6.43;;;10.90;99.90;;;;;;5072965;28;20545;-39
2023/04/28 12:32:42;;;;;;;14.68;7.65;;;10.90;99.90;;;;;;5072807;28;20053;-40
2023/04/28 12:35:08;;;;;;;12.60;6.80;;;10.90;99.90;;;;;;5073849;28;20497;-39
2023/04/28 12:37:34;;;;;;;10.80;6.20;;;10.90;99.90;;;;;;5072867;28;20545;-39
2023/04/28 12:40:01;;;;;;;11.87;6.63;;;10.90;99.90;;;;;;5074138;28;20048;-39
2023/04/28 12:42:28;;;;;;;12.27;7.22;;;10.90;99.90;;;;;;5073656;28;20053;-40
2023/04/28 12:44:53;;;;;;;;;;;10.90;99.90;;;;;;5072929;28;20487;-40
2023/04/28 12:47:20;;;;;;;12.75;6.88;;;10.90;99.90;;;;;;5072754;28;19921;-39
2023/04/28 12:49:47;;;;;;;12.60;6.88;;;10.90;99.90;;;;;;5072515;28;20060;-40
2023/04/28 12:52:12;;;;;;;11.98;7.03;;;10.90;99.90;;;;;;5071983;28;20119;-39